^^
Station Historical Data
Daily Summary for December 4, 2017 Units:  Metric    English   Both
« Previous Day
Next Day »
Daily Weekly Monthly Yearly Custom
  High: Low: Average:
Temperature: 35 °C 15 °C 20.9 °C
Dew Point: 7.4 °C -4.6 °C 4.9 °C
Humidity: 58% 8% 41%
Wind Speed: 28.8km/h 0km/h 9.5km/h
Wind Gust: 32.2km/h - -
Wind- - SW
Pressure: 1012.4 hPa 1006 hPa -
Precipitation: 0 mm    
Historical Graphs
 
 
Tabular Data for December 4, 2017
Time Temperature Dew Point Pressure Wind Wind Speed Wind Gust Humidity Rainfall Rate (Hourly) solar Conditions
00:22 19.4 °C 5.8 °C 1012.1 hPa SSW 13 km/h 17.7 km/h 41% 0 mm 0.0 W/m2
00:27 19.3 °C 5.7 °C 1012.1 hPa SSW 14.3 km/h 19.3 km/h 41% 0 mm 0.0 W/m2
00:32 19.2 °C 6 °C 1012.1 hPa SSW 11.1 km/h 14.5 km/h 42% 0 mm 0.0 W/m2
00:42 19 °C 6.1 °C 1012.1 hPa SSW 13 km/h 19.3 km/h 43% 0 mm 0.0 W/m2
00:47 18.9 °C 6 °C 1012.1 hPa SSW 11.1 km/h 16.1 km/h 43% 0 mm 0.0 W/m2
00:52 18.8 °C 6 °C 1012.1 hPa SSW 14.3 km/h 17.7 km/h 43% 0 mm 0.0 W/m2
00:57 18.7 °C 6.2 °C 1011.7 hPa SSW 16.3 km/h 19.3 km/h 44% 0 mm 0.0 W/m2
01:07 18.6 °C 6.4 °C 1011.7 hPa SSW 13 km/h 17.7 km/h 45% 0 mm 0.0 W/m2
01:17 18.4 °C 6.6 °C 1011.7 hPa SSW 16.3 km/h 20.9 km/h 46% 0 mm 0.0 W/m2
01:22 18.3 °C 6.2 °C 1011.7 hPa SSW 13 km/h 14.5 km/h 45% 0 mm 0.0 W/m2
01:27 18.2 °C 6.4 °C 1011.7 hPa SSW 9.7 km/h 16.1 km/h 46% 0 mm 0.0 W/m2
01:32 18.1 °C 6.6 °C 1011.7 hPa SSW 11.1 km/h 12.9 km/h 47% 0 mm 0.0 W/m2
01:38 17.9 °C 6.4 °C 1011.7 hPa SSW 14.3 km/h 14.5 km/h 47% 0 mm 0.0 W/m2
01:43 17.8 °C 6.6 °C 1011.7 hPa SSW 13 km/h 16.1 km/h 48% 0 mm 0.0 W/m2
01:52 17.7 °C 6.5 °C 1011.7 hPa SSW 9.7 km/h 12.9 km/h 48% 0 mm 0.0 W/m2
01:58 17.6 °C 6.8 °C 1011.7 hPa SSW 9.7 km/h 12.9 km/h 49% 0 mm 0.0 W/m2
02:03 17.5 °C 6.7 °C 1011.7 hPa SSW 9.7 km/h 12.9 km/h 49% 0 mm 0.0 W/m2
02:08 17.4 °C 6.9 °C 1011.7 hPa SSW 6.4 km/h 12.9 km/h 50% 0 mm 0.0 W/m2
02:13 17.3 °C 6.8 °C 1011.7 hPa SSW 11.1 km/h 11.3 km/h 50% 0 mm 0.0 W/m2
02:18 17.2 °C 6.7 °C 1011.7 hPa SSW 11.1 km/h 12.9 km/h 50% 0 mm 0.0 W/m2
02:23 17.1 °C 6.9 °C 1011.7 hPa SSW 11.1 km/h 14.5 km/h 51% 0 mm 0.0 W/m2
02:28 17 °C 6.8 °C 1011.7 hPa SSW 7.9 km/h 11.3 km/h 51% 0 mm 0.0 W/m2
02:33 16.9 °C 6.7 °C 1011.7 hPa SSW 7.9 km/h 11.3 km/h 51% 0 mm 0.0 W/m2
02:38 16.9 °C 6.7 °C 1011.7 hPa SSW 13 km/h 14.5 km/h 51% 0 mm 0.0 W/m2
02:48 16.8 °C 6.6 °C 1011.7 hPa SSW 7.9 km/h 11.3 km/h 51% 0 mm 0.0 W/m2
02:53 16.7 °C 6.5 °C 1011.7 hPa SSW 9.7 km/h 11.3 km/h 51% 0 mm 0.0 W/m2
02:58 16.7 °C 6.8 °C 1011.7 hPa SSW 7.9 km/h 9.7 km/h 52% 0 mm 0.0 W/m2
03:03 16.6 °C 6.7 °C 1011.4 hPa SSW 6.4 km/h 9.7 km/h 52% 0 mm 0.0 W/m2
03:08 16.4 °C 6.5 °C 1011.7 hPa SSW 9.7 km/h 9.7 km/h 52% 0 mm 0.0 W/m2
03:13 16.3 °C 6.4 °C 1011.7 hPa SSW 9.7 km/h 11.3 km/h 52% 0 mm 0.0 W/m2
03:23 16.4 °C 6.5 °C 1011.4 hPa SSW 11.1 km/h 12.9 km/h 52% 0 mm 0.0 W/m2
03:28 16.4 °C 6.8 °C 1011.4 hPa SSW 11.1 km/h 16.1 km/h 53% 0 mm 0.0 W/m2
03:33 16.4 °C 6.8 °C 1011.4 hPa SSW 11.1 km/h 14.5 km/h 53% 0 mm 0.0 W/m2
03:38 16.3 °C 6.7 °C 1011.4 hPa SSW 13 km/h 14.5 km/h 53% 0 mm 0.0 W/m2
03:43 16.3 °C 6.7 °C 1011.4 hPa SSW 11.1 km/h 14.5 km/h 53% 0 mm 0.0 W/m2
03:53 16.2 °C 6.6 °C 1011.4 hPa SSW 9.7 km/h 11.3 km/h 53% 0 mm 0.0 W/m2
03:58 16.1 °C 6.8 °C 1011.4 hPa SSW 11.1 km/h 11.3 km/h 54% 0 mm 0.0 W/m2
04:03 16 °C 6.7 °C 1011.1 hPa SSW 9.7 km/h 11.3 km/h 54% 0 mm 0.0 W/m2
04:08 15.9 °C 6.6 °C 1011.1 hPa SSW 9.7 km/h 9.7 km/h 54% 0 mm 0.0 W/m2
04:13 15.9 °C 6.6 °C 1011.4 hPa SSW 9.7 km/h 11.3 km/h 54% 0 mm 0.0 W/m2
04:18 15.9 °C 6.9 °C 1011.1 hPa SSW 11.1 km/h 14.5 km/h 55% 0 mm 0.0 W/m2
04:23 15.9 °C 6.9 °C 1011.1 hPa SSW 9.7 km/h 14.5 km/h 55% 0 mm 0.0 W/m2
04:28 15.9 °C 6.9 °C 1011.1 hPa SSW 11.1 km/h 16.1 km/h 55% 0 mm 0.0 W/m2
04:39 15.8 °C 6.8 °C 1011.1 hPa SSW 11.1 km/h 16.1 km/h 55% 0 mm 0.0 W/m2
04:44 15.8 °C 6.8 °C 1011.1 hPa SSW 7.9 km/h 14.5 km/h 55% 0 mm 0.0 W/m2
04:49 15.8 °C 6.8 °C 1011.1 hPa SSW 9.7 km/h 12.9 km/h 55% 0 mm 0.0 W/m2
04:54 15.7 °C 6.7 °C 1011.1 hPa SSW 11.1 km/h 14.5 km/h 55% 0 mm 0.0 W/m2
04:59 15.7 °C 6.9 °C 1011.1 hPa SSW 11.1 km/h 16.1 km/h 56% 0 mm 0.0 W/m2
05:04 15.6 °C 6.9 °C 1011.1 hPa SSW 14.3 km/h 14.5 km/h 56% 0 mm 0.0 W/m2
05:09 15.6 °C 6.9 °C 1011.4 hPa SSW 7.9 km/h 12.9 km/h 56% 0 mm 0.0 W/m2
05:19 15.5 °C 6.8 °C 1011.4 hPa SSW 9.7 km/h 11.3 km/h 56% 0 mm 0.0 W/m2
05:24 15.4 °C 6.7 °C 1011.4 hPa SSW 11.1 km/h 14.5 km/h 56% 0 mm 0.0 W/m2
05:29 15.3 °C 6.8 °C 1011.4 hPa SSW 11.1 km/h 11.3 km/h 57% 0 mm 0.0 W/m2
05:34 15.2 °C 6.7 °C 1011.4 hPa SSW 9.7 km/h 12.9 km/h 57% 0 mm 0.0 W/m2
05:39 15.2 °C 6.7 °C 1011.7 hPa SSW 9.7 km/h 12.9 km/h 57% 0 mm 0.0 W/m2
05:44 15.1 °C 6.6 °C 1011.7 hPa SSW 9.7 km/h 11.3 km/h 57% 0 mm 0.0 W/m2
05:49 15.1 °C 6.9 °C 1011.7 hPa SSW 9.7 km/h 9.7 km/h 58% 0 mm 5.0 W/m2
05:54 15 °C 6.8 °C 1011.4 hPa SSW 7.9 km/h 11.3 km/h 58% 0 mm 9.0 W/m2
05:59 15 °C 6.8 °C 1011.7 hPa SSW 9.7 km/h 11.3 km/h 58% 0 mm 11.0 W/m2
06:04 15 °C 6.8 °C 1011.7 hPa SSW 4.7 km/h 8 km/h 58% 0 mm 14.0 W/m2
06:09 15 °C 6.8 °C 1011.7 hPa SSW 6.4 km/h 8 km/h 58% 0 mm 19.0 W/m2
06:14 15.1 °C 6.9 °C 1011.7 hPa SSW 7.9 km/h 9.7 km/h 58% 0 mm 32.0 W/m2
06:24 15.3 °C 6.8 °C 1011.7 hPa SW 3.2 km/h 8 km/h 57% 0 mm 58.0 W/m2
06:30 15.4 °C 6.9 °C 1011.7 hPa SW 3.2 km/h 6.4 km/h 57% 0 mm 72.0 W/m2
06:35 15.5 °C 6.8 °C 1011.7 hPa Calm     56% 0 mm 90.0 W/m2
06:41 15.7 °C 6.9 °C 1011.7 hPa Calm     56% 0 mm 109.0 W/m2
06:47 15.9 °C 7.1 °C 1011.7 hPa Calm     56% 0 mm 132.0 W/m2
06:57 16.4 °C 7.1 °C 1011.7 hPa Calm     54% 0 mm 174.0 W/m2
07:03 16.7 °C 7.3 °C 1011.7 hPa SW 9.7 km/h 12.9 km/h 54% 0 mm 192.0 W/m2
07:14 17.1 °C 7.4 °C 1012.1 hPa SW 13 km/h 16.1 km/h 53% 0 mm 234.0 W/m2
07:25 17.4 °C 7.2 °C 1012.1 hPa SW 9.7 km/h 14.5 km/h 51% 0 mm 267.0 W/m2
07:37 17.9 °C 7 °C 1012.1 hPa SW 11.1 km/h 14.5 km/h 49% 0 mm 320.0 W/m2
07:50 18.2 °C 7 °C 1012.1 hPa SW 11.1 km/h 16.1 km/h 48% 0 mm 352.0 W/m2
07:58 18.6 °C 7.1 °C 1012.1 hPa SW 13 km/h 14.5 km/h 47% 0 mm 387.0 W/m2
08:05 19.1 °C 7.2 °C 1012.1 hPa SW 13 km/h 14.5 km/h 46% 0 mm 422.0 W/m2
08:18 19.3 °C 7.1 °C 1012.4 hPa SW 11.1 km/h 14.5 km/h 45% 0 mm 454.0 W/m2
08:20 19.6 °C 7 °C 1012.4 hPa SW 11.1 km/h 16.1 km/h 44% 0 mm 471.0 W/m2
08:30 19.7 °C 7.1 °C 1012.4 hPa SW 11.1 km/h 14.5 km/h 44% 0 mm 485.0 W/m2
08:35 20 °C 7 °C 1012.4 hPa SW 11.1 km/h 19.3 km/h 43% 0 mm 520.0 W/m2
08:57 20.6 °C 6.9 °C 1012.4 hPa SW 16.3 km/h 17.7 km/h 41% 0 mm 568.0 W/m2
09:12 21 °C 6.9 °C 1012.4 hPa SW 14.3 km/h 17.7 km/h 40% 0 mm 617.0 W/m2
09:21 21.7 °C 6.4 °C 1012.1 hPa SW 6.4 km/h 11.3 km/h 37% 0 mm 661.0 W/m2
09:36 22.4 °C 6.2 °C 1012.1 hPa SW 9.7 km/h 12.9 km/h 35% 0 mm 705.0 W/m2
09:51 23.1 °C 5.9 °C 1012.1 hPa SW 9.7 km/h 9.7 km/h 33% 0 mm 751.0 W/m2
10:06 23.9 °C 5.3 °C 1012.1 hPa SW 7.9 km/h 14.5 km/h 30% 0 mm 788.0 W/m2
10:16 24.3 °C 5.1 °C 1012.1 hPa SW 1.4 km/h 8 km/h 29% 0 mm 812.0 W/m2
10:21 24.3 °C 5.1 °C 1012.1 hPa SW 1.4 km/h 8 km/h 29% 0 mm 812.0 W/m2
10:33 24.8 °C 4 °C 1012.1 hPa Calm     26% 0 mm 837.0 W/m2
10:42 25.7 °C 4.8 °C 1011.7 hPa Calm     26% 0 mm 867.0 W/m2
10:48 25.7 °C 4.8 °C 1011.7 hPa Calm     26% 0 mm 867.0 W/m2
10:57 26.3 °C 4.7 °C 1011.7 hPa SW 3.2 km/h 11.3 km/h 25% 0 mm 893.0 W/m2
11:18 27.1 °C 2.9 °C 1011.7 hPa Calm   1.6 km/h 21% 0 mm 930.0 W/m2
11:47 28.3 °C 2.5 °C 1011.4 hPa Calm   1.6 km/h 19% 0 mm 1020.0 W/m2
12:05 29.1 °C 1.6 °C 1011.1 hPa SW 7.9 km/h 17.7 km/h 17% 0 mm 960.0 W/m2
12:19 29.8 °C 1.3 °C 1010.7 hPa Calm   11.3 km/h 16% 0 mm 782.0 W/m2
12:28 30.2 °C 1.6 °C 1010.7 hPa Calm   1.6 km/h 16% 0 mm 756.0 W/m2
12:37 30.6 °C 1 °C 1010.4 hPa Calm   1.6 km/h 15% 0 mm 819.0 W/m2
12:46 30.8 °C 0.2 °C 1010.4 hPa SW 1.4 km/h 4.8 km/h 14% 0 mm 1071.0 W/m2
16:04 34 °C -3.3 °C 1007 hPa West 11.1 km/h 17.7 km/h 9% 0 mm 563.0 W/m2
16:07 33.9 °C -3.4 °C 1007 hPa West 9.7 km/h 12.9 km/h 9% 0 mm 765.0 W/m2
16:13 33.8 °C -3.5 °C 1007 hPa Calm   12.9 km/h 9% 0 mm 381.0 W/m2
16:46 34.3 °C -3.1 °C 1006.7 hPa WNW 4.7 km/h 22.5 km/h 9% 0 mm 570.0 W/m2
16:58 34.3 °C -3.1 °C 1006.3 hPa WNW 13 km/h 17.7 km/h 9% 0 mm 281.0 W/m2
17:07 34.2 °C -3.2 °C 1006.3 hPa Calm   4.8 km/h 9% 0 mm 237.0 W/m2
17:27 35 °C -4.2 °C 1006 hPa Calm   19.3 km/h 8% 0 mm 545.0 W/m2
17:37 34.6 °C -4.5 °C 1006 hPa Calm   1.6 km/h 8% 0 mm 306.0 W/m2
17:47 34.7 °C -4.4 °C 1006 hPa West 9.7 km/h 12.9 km/h 8% 0 mm 308.0 W/m2
17:57 34.4 °C -4.6 °C 1006 hPa West 1.4 km/h 9.7 km/h 8% 0 mm 330.0 W/m2
18:08 34.4 °C -4.6 °C 1006 hPa West 1.4 km/h 16.1 km/h 8% 0 mm 139.0 W/m2
18:16 34.2 °C -3.2 °C 1006.3 hPa WSW 11.1 km/h 16.1 km/h 9% 0 mm 295.0 W/m2
18:27 34.1 °C -3.3 °C 1006.3 hPa South 14.3 km/h 20.9 km/h 9% 0 mm 202.0 W/m2
18:39 33.9 °C -3.4 °C 1006 hPa South 13 km/h 22.5 km/h 9% 0 mm 95.0 W/m2
18:54 33.1 °C -0.1 °C 1006.3 hPa SSE 22.7 km/h 29 km/h 12% 0 mm 26.0 W/m2
19:05 32.7 °C -0.4 °C 1006.7 hPa SSE 19.5 km/h 25.7 km/h 12% 0 mm 28.0 W/m2
19:14 32.3 °C -0.7 °C 1006.7 hPa SSE 22.7 km/h 27.4 km/h 12% 0 mm 18.0 W/m2
23:32 21.7 °C 7.1 °C 1009.7 hPa SSW 25.9 km/h 30.6 km/h 39% 0 mm 0.0 W/m2
23:38 21.7 °C 7.1 °C 1009.7 hPa SSW 22.7 km/h 30.6 km/h 39% 0 mm 0.0 W/m2
23:43 21.6 °C 7.4 °C 1009.7 hPa SSW 28.8 km/h 30.6 km/h 40% 0 mm 0.0 W/m2
23:46 21.4 °C 7.2 °C 1009.7 hPa SSW 17.7 km/h 32.2 km/h 40% 0 mm 0.0 W/m2
23:59 21.3 °C 7.2 °C 1009.7 hPa SSW 28.8 km/h 30.6 km/h 40% 0 mm 0.0 W/m2
Canyon Roadhouse, Fishriver Canyon, Namibia
Compliments of Weather Underground - 2.25 mb